Terminal Aerodrome Forecast
Issued by NWS Norman, OK

Current Version | Previous Version | Text Only | Print | Product List | Glossary On
Versions: 1 2 3 4 5 6 7 8 9 10 11 12 13 14
000
FTUS44 KOUN 161128
TAFOKC
TAF
KOKC 161128Z 1612/1712 22008KT P6SM OVC004
      TEMPO 1612/1615 2SM BR
     FM161800 25013KT P6SM OVC015
     FM162100 27014KT P6SM SCT025 SCT250
     FM170000 31009KT P6SM SCT250
      TEMPO 1709/1712 4SM BR=

USA.gov is the U.S. government's official web portal to all federal, state and local government web resources and services.